createdAt,value
2023-03-11T00:00:39.508Z,6.23
2023-03-11T00:03:07.640Z,14.07
2023-03-11T00:05:37.451Z,4.40
2023-03-11T00:08:05.473Z,5.35
2023-03-11T00:10:43.347Z,2.80
2023-03-11T00:13:11.623Z,5.27
2023-03-11T00:15:39.507Z,11.35
2023-03-11T00:18:08.670Z,12.23
2023-03-11T00:20:37.726Z,7.20
2023-03-11T00:23:06.884Z,6.15
2023-03-11T00:25:35.909Z,6.80
2023-03-11T00:28:02.372Z,5.97
2023-03-11T00:30:29.517Z,2.95
2023-03-11T00:32:58.057Z,4.32
2023-03-11T00:35:28.136Z,9.98
2023-03-11T00:37:57.598Z,6.80
2023-03-11T00:40:25.940Z,4.10
2023-03-11T00:42:53.709Z,3.10
2023-03-11T00:45:20.247Z,4.05
2023-03-11T00:47:46.781Z,3.90
2023-03-11T00:50:23.249Z,4.43
2023-03-11T00:52:50.890Z,2.00
2023-03-11T00:55:26.032Z,3.60
2023-03-11T00:57:58.175Z,3.97
2023-03-11T01:00:25.861Z,3.88
2023-03-11T01:02:53.723Z,3.37
2023-03-11T01:05:22.620Z,2.97
2023-03-11T01:07:49.717Z,2.33
2023-03-11T01:10:17.420Z,8.75
2023-03-11T01:12:44.404Z,8.73
2023-03-11T01:15:19.008Z,8.67
2023-03-11T01:17:45.627Z,7.78
2023-03-11T01:20:13.024Z,3.17
2023-03-11T01:22:39.660Z,11.73
2023-03-11T01:25:06.544Z,8.07
2023-03-11T01:27:33.014Z,10.20
2023-03-11T01:29:59.498Z,6.40
2023-03-11T01:32:25.916Z,2.40
2023-03-11T01:34:52.413Z,6.85
2023-03-11T01:37:20.189Z,6.57
2023-03-11T01:39:48.898Z,5.30
2023-03-11T01:42:15.333Z,11.90
2023-03-11T01:44:43.049Z,12.73
2023-03-11T01:47:12.967Z,17.10
2023-03-11T01:49:42.016Z,21.15
2023-03-11T01:52:09.106Z,22.20
2023-03-11T01:54:38.279Z,9.75
2023-03-11T01:57:12.433Z,14.40
2023-03-11T01:59:53.158Z,1.95
2023-03-11T02:02:50.376Z,5.75
2023-03-11T02:05:18.564Z,2.20
2023-03-11T02:07:45.322Z,4.47
2023-03-11T02:10:13.649Z,2.92
2023-03-11T02:12:41.179Z,3.92
2023-03-11T02:15:11.318Z,5.65
2023-03-11T02:17:40.078Z,4.27
2023-03-11T02:20:12.659Z,5.18
2023-03-11T02:22:43.576Z,4.25
2023-03-11T02:25:48.967Z,5.03
2023-03-11T02:28:19.000Z,2.40
2023-03-11T02:30:46.425Z,4.23
2023-03-11T02:33:14.764Z,5.57
2023-03-11T02:35:41.262Z,1.27
2023-03-11T02:38:10.375Z,5.07
2023-03-11T02:40:49.700Z,1.02
2023-03-11T02:43:19.717Z,1.67
2023-03-11T02:45:48.004Z,6.68
2023-03-11T02:48:15.431Z,2.78
2023-03-11T02:50:43.227Z,0.82
2023-03-11T02:53:10.145Z,2.40
2023-03-11T02:55:36.724Z,7.03
2023-03-11T02:58:03.494Z,2.28
2023-03-11T03:00:30.090Z,3.67
2023-03-11T03:02:56.580Z,3.60
2023-03-11T03:05:23.609Z,4.97
2023-03-11T03:07:50.760Z,2.03
2023-03-11T03:10:20.967Z,4.32
2023-03-11T03:12:47.399Z,3.70
2023-03-11T03:15:15.923Z,2.78
2023-03-11T03:17:42.517Z,3.80
2023-03-11T03:20:11.623Z,3.37
2023-03-11T03:22:39.407Z,1.80
2023-03-11T03:25:06.397Z,1.67
2023-03-11T03:27:34.568Z,5.45
2023-03-11T03:30:01.152Z,5.30
2023-03-11T03:32:27.675Z,1.13
2023-03-11T03:34:58.895Z,1.00
2023-03-11T03:37:27.463Z,3.15
2023-03-11T03:39:54.627Z,17.85
2023-03-11T03:42:21.900Z,4.85
2023-03-11T03:44:48.360Z,2.37
2023-03-11T03:47:14.859Z,6.03
2023-03-11T03:49:41.502Z,4.80
2023-03-11T03:52:08.683Z,2.35
2023-03-11T03:54:35.137Z,5.93
2023-03-11T03:57:02.113Z,1.17
2023-03-11T03:59:28.813Z,3.90
2023-03-11T04:01:55.396Z,2.25
2023-03-11T04:04:23.705Z,2.30
2023-03-11T04:06:50.246Z,4.82
2023-03-11T04:09:16.729Z,7.20
2023-03-11T04:11:43.227Z,2.22
2023-03-11T04:14:09.713Z,1.65
2023-03-11T04:16:37.897Z,1.85
2023-03-11T04:19:05.731Z,4.57
2023-03-11T04:21:32.776Z,1.53
2023-03-11T04:23:59.930Z,1.25
2023-03-11T04:26:26.630Z,3.70
2023-03-11T04:28:53.172Z,4.70
2023-03-11T04:31:19.756Z,4.22
2023-03-11T04:33:46.206Z,5.60
2023-03-11T04:36:13.157Z,1.23
2023-03-11T04:38:41.177Z,2.47
2023-03-11T04:41:07.595Z,2.65
2023-03-11T04:43:34.454Z,1.45
2023-03-11T04:46:00.908Z,6.73
2023-03-11T04:48:27.645Z,4.65
2023-03-11T04:50:55.548Z,2.47
2023-03-11T04:53:22.368Z,3.83
2023-03-11T04:55:48.860Z,3.53
2023-03-11T04:58:15.288Z,5.10
2023-03-11T05:00:41.867Z,0.55
2023-03-11T05:03:09.868Z,1.60
2023-03-11T05:05:36.344Z,2.10
2023-03-11T05:08:03.521Z,1.13
2023-03-11T05:10:31.901Z,5.17
2023-03-11T05:12:58.706Z,2.80
2023-03-11T05:15:26.004Z,4.82
2023-03-11T05:17:52.523Z,4.25
2023-03-11T05:20:18.964Z,8.57
2023-03-11T05:22:45.461Z,2.37
2023-03-11T05:25:12.941Z,1.67
2023-03-11T05:27:39.543Z,4.60
2023-03-11T05:30:07.225Z,5.10
2023-03-11T05:32:33.978Z,0.88
2023-03-11T05:35:01.108Z,3.37
2023-03-11T05:37:28.158Z,1.38
2023-03-11T05:39:54.642Z,3.55
2023-03-11T05:42:21.614Z,2.08
2023-03-11T05:44:48.162Z,2.45
2023-03-11T05:47:16.793Z,1.13
2023-03-11T05:49:43.258Z,0.82
2023-03-11T05:52:09.708Z,0.60
2023-03-11T05:54:36.137Z,3.35
2023-03-11T05:57:02.658Z,0.93
2023-03-11T05:59:29.159Z,3.67
2023-03-11T06:01:55.778Z,2.05
2023-03-11T06:04:22.389Z,3.42
2023-03-11T06:06:48.862Z,3.55
2023-03-11T06:09:16.005Z,3.42
2023-03-11T06:11:42.807Z,1.40
2023-03-11T06:14:14.209Z,4.60
2023-03-11T06:16:41.768Z,2.58
2023-03-11T06:19:08.540Z,0.68
2023-03-11T06:21:35.856Z,1.80
2023-03-11T06:24:02.258Z,3.07
2023-03-11T06:26:28.691Z,2.20
2023-03-11T06:28:55.174Z,1.27
2023-03-11T06:31:27.085Z,0.80
2023-03-11T06:33:55.982Z,3.00
2023-03-11T06:36:23.151Z,0.63
2023-03-11T06:38:52.199Z,2.40
2023-03-11T06:41:18.644Z,1.67
2023-03-11T06:43:45.076Z,1.20
2023-03-11T06:46:22.895Z,2.85
2023-03-11T06:48:52.436Z,2.30
2023-03-11T06:51:20.557Z,2.95
2023-03-11T06:53:52.331Z,7.03
2023-03-11T06:56:20.023Z,11.93
2023-03-11T06:58:46.703Z,4.55
2023-03-11T07:01:18.657Z,6.50
2023-03-11T07:03:46.912Z,4.50
2023-03-11T07:06:26.618Z,4.60
2023-03-11T07:08:53.779Z,3.83
2023-03-11T07:11:25.933Z,3.35
2023-03-11T07:13:53.614Z,4.57
2023-03-11T07:16:23.143Z,3.33
2023-03-11T07:18:50.453Z,3.42
2023-03-11T07:21:19.992Z,3.22
2023-03-11T07:23:49.191Z,3.72
2023-03-11T07:26:17.919Z,1.60
2023-03-11T07:28:46.381Z,7.00
2023-03-11T07:31:16.641Z,6.30
2023-03-11T07:33:43.812Z,3.33
2023-03-11T07:36:20.012Z,9.57
2023-03-11T07:38:49.126Z,1.73
2023-03-11T07:41:16.398Z,22.83
2023-03-11T07:43:43.933Z,5.47
2023-03-11T07:46:18.621Z,3.72
2023-03-11T07:48:45.777Z,2.90
2023-03-11T07:51:20.882Z,5.03
2023-03-11T07:53:48.843Z,2.72
2023-03-11T07:56:16.991Z,7.72
2023-03-11T07:58:45.696Z,3.40
2023-03-11T08:01:19.654Z,1.90
2023-03-11T08:03:47.968Z,8.17
2023-03-11T08:06:17.161Z,5.57
2023-03-11T08:08:43.751Z,4.25
2023-03-11T08:11:13.139Z,2.92
2023-03-11T08:13:40.914Z,2.92
2023-03-11T08:16:09.734Z,3.13
2023-03-11T08:18:36.290Z,2.33
2023-03-11T08:21:07.289Z,2.45
2023-03-11T08:23:34.207Z,8.23
2023-03-11T08:26:09.202Z,2.70
2023-03-11T08:28:36.793Z,4.57
2023-03-11T08:31:11.585Z,2.83
2023-03-11T08:33:38.124Z,1.85
2023-03-11T08:36:05.035Z,3.63
2023-03-11T08:38:32.106Z,1.73
2023-03-11T08:40:58.606Z,4.63
2023-03-11T08:43:25.045Z,3.65
2023-03-11T08:45:51.552Z,2.55
2023-03-11T08:48:18.896Z,1.95
2023-03-11T08:50:53.819Z,3.20
2023-03-11T08:53:22.074Z,2.37
2023-03-11T08:55:52.930Z,3.10
2023-03-11T08:58:20.418Z,3.50
2023-03-11T09:00:47.294Z,3.47
2023-03-11T09:03:13.790Z,1.52
2023-03-11T09:05:40.747Z,2.90
2023-03-11T09:08:07.276Z,3.10
2023-03-11T09:10:33.818Z,3.53
2023-03-11T09:13:00.246Z,2.30
2023-03-11T09:15:26.785Z,3.10
2023-03-11T09:17:54.286Z,3.27
2023-03-11T09:20:21.277Z,1.30
2023-03-11T09:22:49.383Z,7.55
2023-03-11T09:25:16.322Z,7.72
2023-03-11T09:27:43.152Z,2.50
2023-03-11T09:30:10.903Z,5.40
2023-03-11T09:32:37.543Z,4.15
2023-03-11T09:35:05.041Z,2.63
2023-03-11T09:37:32.190Z,1.70
2023-03-11T09:39:58.592Z,2.17
2023-03-11T09:42:49.628Z,3.77
2023-03-11T09:45:27.967Z,4.45
2023-03-11T09:48:18.861Z,2.28
2023-03-11T09:51:27.050Z,5.13
2023-03-11T09:54:02.879Z,2.55
2023-03-11T09:56:32.648Z,3.73
2023-03-11T09:59:09.544Z,3.30
2023-03-11T10:01:48.560Z,4.32
2023-03-11T10:04:27.101Z,4.05
2023-03-11T10:06:54.467Z,5.75
2023-03-11T10:09:42.762Z,2.17
2023-03-11T10:12:37.041Z,13.00
2023-03-11T10:15:22.177Z,21.65
2023-03-11T10:18:00.469Z,9.18
2023-03-11T10:20:54.792Z,2.10
2023-03-11T10:24:03.230Z,4.00
2023-03-11T10:26:33.220Z,2.30
2023-03-11T10:29:10.257Z,5.13
2023-03-11T10:32:10.528Z,5.95
2023-03-11T10:34:45.833Z,2.83
2023-03-11T10:37:19.814Z,2.53
2023-03-11T10:39:51.067Z,3.20
2023-03-11T10:42:24.896Z,3.25
2023-03-11T10:44:52.595Z,2.30
2023-03-11T10:47:23.087Z,3.92
2023-03-11T10:49:50.316Z,1.93
2023-03-11T10:52:17.135Z,2.78
2023-03-11T10:54:47.749Z,4.85
2023-03-11T10:57:35.963Z,5.93
2023-03-11T11:00:12.726Z,2.83
2023-03-11T11:02:49.522Z,2.23
2023-03-11T11:05:19.019Z,1.75
2023-03-11T11:07:50.396Z,4.05
2023-03-11T11:10:21.171Z,5.18
2023-03-11T11:13:13.798Z,5.50
2023-03-11T11:15:43.078Z,0.87
2023-03-11T11:18:17.351Z,4.13
2023-03-11T11:20:59.036Z,3.20
2023-03-11T11:23:49.926Z,8.13
2023-03-11T11:26:16.258Z,6.65
2023-03-11T11:28:42.959Z,2.87
2023-03-11T11:31:26.373Z,3.17
2023-03-11T11:33:55.728Z,5.13
2023-03-11T11:36:27.017Z,2.25
2023-03-11T11:38:55.386Z,1.90
2023-03-11T11:41:24.769Z,3.10
2023-03-11T11:43:57.375Z,1.95
2023-03-11T11:46:45.329Z,5.50
2023-03-11T11:49:25.665Z,3.60
2023-03-11T11:52:00.536Z,3.28
2023-03-11T11:54:36.679Z,2.97
2023-03-11T11:57:11.915Z,4.28
2023-03-11T11:59:38.568Z,7.40
2023-03-11T12:02:51.167Z,4.65
2023-03-11T12:05:28.556Z,2.17
2023-03-11T12:08:16.569Z,2.73
2023-03-11T12:10:53.174Z,6.63
2023-03-11T12:13:49.391Z,1.55
2023-03-11T12:16:35.232Z,6.78
2023-03-11T12:19:22.424Z,3.90
2023-03-11T12:21:57.489Z,4.53
2023-03-11T12:25:03.044Z,2.72
2023-03-11T12:27:47.663Z,2.95
2023-03-11T12:30:23.195Z,6.13
2023-03-11T12:32:56.739Z,4.07
2023-03-11T12:35:30.245Z,0.80
2023-03-11T12:38:18.617Z,4.55
2023-03-11T12:40:45.001Z,1.95
2023-03-11T12:43:33.874Z,6.80
2023-03-11T12:46:01.906Z,1.88
2023-03-11T12:48:35.857Z,3.30
2023-03-11T12:51:03.488Z,2.97
2023-03-11T12:53:41.814Z,3.83
2023-03-11T12:56:16.938Z,3.55
2023-03-11T12:59:34.466Z,4.25
2023-03-11T13:02:09.708Z,2.27
2023-03-11T13:04:58.387Z,3.55
2023-03-11T13:07:47.592Z,4.18
2023-03-11T13:10:34.739Z,2.03
2023-03-11T13:13:01.673Z,6.93
2023-03-11T13:15:35.512Z,6.33
2023-03-11T13:18:11.113Z,3.60
2023-03-11T13:20:43.712Z,8.60
2023-03-11T13:23:24.162Z,3.88
2023-03-11T13:25:53.803Z,0.98
2023-03-11T13:28:40.988Z,1.20
2023-03-11T13:31:32.322Z,2.10
2023-03-11T13:34:15.564Z,1.63
2023-03-11T13:36:57.246Z,1.00
2023-03-11T13:39:46.088Z,3.10
2023-03-11T13:42:28.004Z,0.83
2023-03-11T13:44:54.814Z,1.60
2023-03-11T13:47:22.480Z,0.43
2023-03-11T13:49:59.973Z,1.05
2023-03-11T13:52:32.205Z,2.35
2023-03-11T13:55:15.880Z,4.73
2023-03-11T13:57:50.182Z,3.88
2023-03-11T14:00:23.925Z,1.13
2023-03-11T14:02:55.185Z,1.85
2023-03-11T14:05:27.699Z,6.13
2023-03-11T14:07:54.378Z,1.43
2023-03-11T14:10:29.932Z,3.17
2023-03-11T14:13:27.206Z,1.30
2023-03-11T14:16:00.766Z,0.85
2023-03-11T14:18:39.106Z,2.20
2023-03-11T14:21:18.743Z,4.33
2023-03-11T14:23:48.228Z,3.58
2023-03-11T14:26:19.246Z,1.88
2023-03-11T14:28:55.134Z,1.10
2023-03-11T14:31:39.535Z,2.60
2023-03-11T14:34:18.016Z,1.13
2023-03-11T14:36:54.332Z,2.13
2023-03-11T14:39:25.406Z,4.43
2023-03-11T14:41:56.757Z,2.65
2023-03-11T14:44:25.975Z,2.78
2023-03-11T14:46:56.353Z,1.33
2023-03-11T14:49:23.773Z,5.60
2023-03-11T14:52:07.316Z,1.63
2023-03-11T14:54:36.535Z,4.40
2023-03-11T14:57:34.148Z,5.40
2023-03-11T15:00:01.226Z,1.60
2023-03-11T15:02:39.579Z,1.73
2023-03-11T15:05:16.320Z,3.42
2023-03-11T15:07:43.983Z,1.52
2023-03-11T15:10:11.695Z,1.05
2023-03-11T15:12:43.592Z,1.50
2023-03-11T15:15:25.984Z,1.05
2023-03-11T15:17:54.712Z,3.35
2023-03-11T15:20:36.675Z,1.40
2023-03-11T15:23:05.324Z,2.55
2023-03-11T15:25:37.942Z,1.83
2023-03-11T15:28:30.928Z,1.25
2023-03-11T15:31:17.765Z,1.35
2023-03-11T15:33:45.206Z,1.23
2023-03-11T15:36:31.913Z,1.00
2023-03-11T15:39:19.444Z,1.87
2023-03-11T15:41:57.264Z,2.78
2023-03-11T15:44:47.999Z,2.90
2023-03-11T15:47:20.628Z,1.65
2023-03-11T15:49:48.178Z,2.72
2023-03-11T15:52:19.158Z,1.80
2023-03-11T15:54:54.719Z,1.98
2023-03-11T15:57:28.284Z,1.70
2023-03-11T15:59:57.939Z,2.10
2023-03-11T16:02:27.159Z,4.50
2023-03-11T16:04:53.808Z,0.67
2023-03-11T16:07:36.529Z,5.05
2023-03-11T16:10:06.050Z,0.50
2023-03-11T16:12:32.645Z,1.67
2023-03-11T16:14:59.094Z,1.77
2023-03-11T16:17:25.532Z,1.47
2023-03-11T16:19:51.976Z,2.45
2023-03-11T16:22:44.365Z,4.03
2023-03-11T16:25:36.128Z,1.40
2023-03-11T16:28:03.115Z,2.97
2023-03-11T16:30:31.691Z,1.80
2023-03-11T16:32:58.684Z,1.00
2023-03-11T16:35:25.608Z,3.33
2023-03-11T16:37:52.285Z,2.15
2023-03-11T16:40:27.315Z,2.15
2023-03-11T16:43:06.275Z,0.90
2023-03-11T16:45:33.005Z,2.97
2023-03-11T16:47:59.581Z,3.40
2023-03-11T16:50:27.036Z,3.55
2023-03-11T16:52:55.124Z,3.47
2023-03-11T16:55:22.059Z,3.33
2023-03-11T16:57:49.091Z,1.80
2023-03-11T17:00:18.057Z,4.28
2023-03-11T17:02:44.893Z,0.82
2023-03-11T17:05:11.458Z,3.20
2023-03-11T17:07:39.725Z,2.33
2023-03-11T17:10:07.694Z,4.20
2023-03-11T17:12:34.360Z,2.95
2023-03-11T17:15:00.949Z,3.17
2023-03-11T17:17:28.090Z,2.80
2023-03-11T17:19:54.785Z,2.03
2023-03-11T17:22:21.269Z,12.52
2023-03-11T17:24:47.921Z,4.22
2023-03-11T17:27:14.342Z,4.93
2023-03-11T17:29:40.743Z,5.43
2023-03-11T17:32:07.733Z,6.07
2023-03-11T17:34:34.291Z,4.50
2023-03-11T17:37:00.776Z,5.18
2023-03-11T17:39:27.241Z,4.38
2023-03-11T17:41:53.662Z,8.32
2023-03-11T17:44:20.163Z,8.50
2023-03-11T17:46:46.954Z,5.50
2023-03-11T17:49:14.667Z,5.15
2023-03-11T17:51:41.178Z,8.35
2023-03-11T17:54:07.742Z,6.40
2023-03-11T17:56:34.312Z,6.10
2023-03-11T17:59:00.829Z,6.75
2023-03-11T18:01:28.503Z,8.10
2023-03-11T18:03:56.137Z,7.78
2023-03-11T18:06:23.507Z,5.80
2023-03-11T18:08:50.412Z,10.57
2023-03-11T18:11:20.493Z,6.80
2023-03-11T18:13:47.151Z,6.70
2023-03-11T18:16:16.798Z,5.07
2023-03-11T18:18:44.202Z,4.85
2023-03-11T18:21:13.256Z,4.97
2023-03-11T18:23:40.209Z,3.83
2023-03-11T18:26:08.776Z,4.43
2023-03-11T18:28:35.982Z,8.30
2023-03-11T18:31:16.600Z,6.40
2023-03-11T18:33:48.044Z,3.73
2023-03-11T18:36:18.977Z,8.20
2023-03-11T18:38:45.979Z,9.73
2023-03-11T18:41:12.511Z,8.98
2023-03-11T18:43:39.293Z,5.30
2023-03-11T18:46:11.176Z,4.30
2023-03-11T18:48:38.370Z,5.90
2023-03-11T18:51:05.417Z,5.72
2023-03-11T18:53:31.938Z,5.15
2023-03-11T18:56:03.110Z,9.02
2023-03-11T18:58:29.562Z,10.70
2023-03-11T19:01:05.217Z,14.35
2023-03-11T19:03:31.744Z,9.27
2023-03-11T19:05:58.588Z,10.13
2023-03-11T19:08:26.834Z,14.30
2023-03-11T19:10:53.604Z,14.37
2023-03-11T19:13:20.580Z,11.75
2023-03-11T19:15:47.505Z,9.18
2023-03-11T19:18:14.235Z,11.25
2023-03-11T19:20:40.969Z,10.52
2023-03-11T19:23:07.951Z,8.90
2023-03-11T19:25:35.321Z,7.47
2023-03-11T19:28:01.789Z,10.15
2023-03-11T19:30:28.307Z,7.68
2023-03-11T19:32:54.835Z,8.75
2023-03-11T19:35:23.098Z,9.37
2023-03-11T19:37:50.631Z,10.68
2023-03-11T19:40:17.761Z,14.13
2023-03-11T19:42:44.347Z,15.70
2023-03-11T19:45:11.551Z,13.88
2023-03-11T19:47:38.633Z,13.10
2023-03-11T19:50:06.080Z,8.20
2023-03-11T19:52:34.580Z,9.68
2023-03-11T19:55:01.178Z,9.93
2023-03-11T19:57:27.664Z,9.90
2023-03-11T19:59:55.289Z,12.43
2023-03-11T20:02:22.084Z,16.30
2023-03-11T20:04:48.686Z,13.68
2023-03-11T20:07:15.315Z,14.73
2023-03-11T20:09:41.766Z,13.85
2023-03-11T20:12:08.455Z,27.30
2023-03-11T20:14:34.904Z,39.60
2023-03-11T20:17:01.361Z,33.95
2023-03-11T20:19:27.831Z,29.52
2023-03-11T20:21:54.313Z,23.58
2023-03-11T20:24:20.847Z,23.23
2023-03-11T20:26:49.961Z,21.40
2023-03-11T20:29:17.735Z,25.08
2023-03-11T20:31:44.650Z,29.08
2023-03-11T20:34:11.927Z,30.83
2023-03-11T20:36:38.871Z,29.37
2023-03-11T20:39:09.389Z,32.40
2023-03-11T20:41:39.216Z,32.22
2023-03-11T20:44:07.889Z,26.08
2023-03-11T20:46:35.117Z,27.83
2023-03-11T20:49:02.492Z,26.77
2023-03-11T20:51:29.216Z,24.40
2023-03-11T20:53:55.666Z,16.90
2023-03-11T20:56:25.212Z,20.98
2023-03-11T20:58:52.832Z,19.23
2023-03-11T21:01:22.362Z,17.97
2023-03-11T21:03:49.411Z,17.80
2023-03-11T21:06:24.463Z,16.95
2023-03-11T21:08:54.162Z,18.25
2023-03-11T21:11:20.787Z,12.43
2023-03-11T21:13:47.336Z,14.83
2023-03-11T21:16:14.261Z,11.52
2023-03-11T21:18:42.455Z,12.35
2023-03-11T21:21:11.746Z,16.92
2023-03-11T21:23:39.349Z,13.60
2023-03-11T21:26:06.764Z,17.90
2023-03-11T21:28:34.533Z,19.05
2023-03-11T21:31:07.757Z,30.75
2023-03-11T21:33:34.538Z,14.68
2023-03-11T21:36:01.237Z,17.42
2023-03-11T21:38:28.916Z,18.20
2023-03-11T21:41:15.595Z,19.35
2023-03-11T21:43:43.099Z,16.15
2023-03-11T21:46:14.481Z,18.85
2023-03-11T21:48:41.595Z,19.10
2023-03-11T21:51:08.151Z,22.03
2023-03-11T21:53:34.577Z,19.27
2023-03-11T21:56:03.604Z,17.52
2023-03-11T21:58:30.599Z,19.80
2023-03-11T22:00:57.088Z,29.52
2023-03-11T22:03:23.818Z,24.27
2023-03-11T22:05:56.729Z,28.80
2023-03-11T22:08:23.378Z,25.73
2023-03-11T22:10:49.924Z,30.70
2023-03-11T22:13:16.350Z,27.17
2023-03-11T22:15:42.837Z,22.17
2023-03-11T22:18:10.575Z,30.85
2023-03-11T22:20:37.298Z,28.60
2023-03-11T22:23:03.922Z,26.67
2023-03-11T22:25:30.374Z,30.35
2023-03-11T22:27:56.968Z,26.60
2023-03-11T22:30:23.615Z,20.77
2023-03-11T22:32:50.708Z,19.77
2023-03-11T22:35:18.136Z,22.83
2023-03-11T22:37:44.755Z,20.23
2023-03-11T22:40:11.738Z,26.57
2023-03-11T22:42:38.269Z,21.58
2023-03-11T22:45:05.949Z,18.92
2023-03-11T22:47:32.857Z,20.88
2023-03-11T22:49:59.308Z,21.20
2023-03-11T22:52:25.842Z,24.73
2023-03-11T22:54:52.418Z,25.25
2023-03-11T22:57:18.831Z,26.13
2023-03-11T22:59:45.365Z,23.05
2023-03-11T23:02:11.827Z,30.60
2023-03-11T23:04:38.254Z,27.70
2023-03-11T23:07:04.741Z,24.58
2023-03-11T23:09:31.170Z,30.23
2023-03-11T23:11:57.638Z,30.15
2023-03-11T23:14:33.992Z,28.15
2023-03-11T23:17:08.574Z,22.77
2023-03-11T23:19:35.061Z,25.63
2023-03-11T23:22:01.478Z,24.45
2023-03-11T23:24:27.899Z,23.08
2023-03-11T23:26:54.305Z,21.33
2023-03-11T23:29:20.779Z,20.25
2023-03-11T23:31:47.204Z,17.63
2023-03-11T23:34:13.661Z,24.42
2023-03-11T23:36:40.138Z,19.50
2023-03-11T23:39:06.621Z,29.37
2023-03-11T23:41:33.076Z,25.67
2023-03-11T23:43:59.499Z,33.50
2023-03-11T23:46:26.104Z,25.25
2023-03-11T23:48:52.644Z,26.55
2023-03-11T23:51:19.038Z,24.40
2023-03-11T23:53:45.467Z,23.23
2023-03-11T23:56:15.304Z,19.45
2023-03-11T23:58:41.756Z,21.38
